sensor_id;sensor_type;location;lat;lon;timestamp;temperature;humidity
16523;DHT22;19889;52.546;13.348;2023-07-16T00:00:00;26.40;98.20
16523;DHT22;19889;52.546;13.348;2023-07-16T00:02:33;26.40;98.10
16523;DHT22;19889;52.546;13.348;2023-07-16T00:05:00;26.40;98.00
16523;DHT22;19889;52.546;13.348;2023-07-16T00:07:27;26.30;97.90
16523;DHT22;19889;52.546;13.348;2023-07-16T00:09:54;26.30;97.80
16523;DHT22;19889;52.546;13.348;2023-07-16T00:12:21;26.30;97.80
16523;DHT22;19889;52.546;13.348;2023-07-16T00:14:49;26.30;97.80
16523;DHT22;19889;52.546;13.348;2023-07-16T00:17:16;26.30;97.80
16523;DHT22;19889;52.546;13.348;2023-07-16T00:19:44;26.20;97.70
16523;DHT22;19889;52.546;13.348;2023-07-16T00:22:11;26.20;97.70
16523;DHT22;19889;52.546;13.348;2023-07-16T00:24:38;26.20;97.70
16523;DHT22;19889;52.546;13.348;2023-07-16T00:27:05;26.30;97.60
16523;DHT22;19889;52.546;13.348;2023-07-16T00:29:33;26.20;97.50
16523;DHT22;19889;52.546;13.348;2023-07-16T00:32:00;26.20;97.50
16523;DHT22;19889;52.546;13.348;2023-07-16T00:34:27;26.20;97.50
16523;DHT22;19889;52.546;13.348;2023-07-16T00:36:55;26.20;97.60
16523;DHT22;19889;52.546;13.348;2023-07-16T00:39:27;26.20;97.70
16523;DHT22;19889;52.546;13.348;2023-07-16T00:41:54;26.20;97.70
16523;DHT22;19889;52.546;13.348;2023-07-16T00:44:22;26.20;97.80
16523;DHT22;19889;52.546;13.348;2023-07-16T00:46:49;26.20;97.90
16523;DHT22;19889;52.546;13.348;2023-07-16T00:49:16;26.20;98.00
16523;DHT22;19889;52.546;13.348;2023-07-16T00:51:43;26.20;98.00
16523;DHT22;19889;52.546;13.348;2023-07-16T00:54:13;26.20;97.90
16523;DHT22;19889;52.546;13.348;2023-07-16T00:56:41;26.20;97.90
16523;DHT22;19889;52.546;13.348;2023-07-16T00:59:08;26.20;97.90
16523;DHT22;19889;52.546;13.348;2023-07-16T01:01:35;26.20;97.90
16523;DHT22;19889;52.546;13.348;2023-07-16T01:04:03;26.20;97.80
16523;DHT22;19889;52.546;13.348;2023-07-16T01:06:34;26.20;97.80
16523;DHT22;19889;52.546;13.348;2023-07-16T01:09:07;26.20;97.90
16523;DHT22;19889;52.546;13.348;2023-07-16T01:11:36;26.20;97.90
16523;DHT22;19889;52.546;13.348;2023-07-16T01:14:05;26.20;97.80
16523;DHT22;19889;52.546;13.348;2023-07-16T01:16:34;26.20;97.70
16523;DHT22;19889;52.546;13.348;2023-07-16T01:19:01;26.20;97.70
16523;DHT22;19889;52.546;13.348;2023-07-16T01:21:32;26.20;97.70
16523;DHT22;19889;52.546;13.348;2023-07-16T01:24:25;26.20;97.80
16523;DHT22;19889;52.546;13.348;2023-07-16T01:27:11;26.20;98.10
16523;DHT22;19889;52.546;13.348;2023-07-16T01:29:47;26.20;98.30
16523;DHT22;19889;52.546;13.348;2023-07-16T01:32:17;26.10;98.30
16523;DHT22;19889;52.546;13.348;2023-07-16T01:34:45;26.10;98.40
16523;DHT22;19889;52.546;13.348;2023-07-16T01:37:21;26.10;98.60
16523;DHT22;19889;52.546;13.348;2023-07-16T01:40:27;26.10;98.60
16523;DHT22;19889;52.546;13.348;2023-07-16T01:42:54;26.00;98.70
16523;DHT22;19889;52.546;13.348;2023-07-16T01:45:23;26.10;98.80
16523;DHT22;19889;52.546;13.348;2023-07-16T01:48:03;26.00;98.70
16523;DHT22;19889;52.546;13.348;2023-07-16T01:50:32;26.00;99.10
16523;DHT22;19889;52.546;13.348;2023-07-16T01:53:00;25.90;98.50
16523;DHT22;19889;52.546;13.348;2023-07-16T01:55:27;26.00;98.50
16523;DHT22;19889;52.546;13.348;2023-07-16T01:58:11;25.90;98.60
16523;DHT22;19889;52.546;13.348;2023-07-16T02:00:51;25.90;98.70
16523;DHT22;19889;52.546;13.348;2023-07-16T02:03:18;25.90;98.90
16523;DHT22;19889;52.546;13.348;2023-07-16T02:05:46;25.90;98.80
16523;DHT22;19889;52.546;13.348;2023-07-16T02:08:14;25.90;98.80
16523;DHT22;19889;52.546;13.348;2023-07-16T02:10:42;25.90;98.80
16523;DHT22;19889;52.546;13.348;2023-07-16T02:13:11;25.90;98.80
16523;DHT22;19889;52.546;13.348;2023-07-16T02:15:38;25.90;98.90
16523;DHT22;19889;52.546;13.348;2023-07-16T02:18:07;25.80;98.90
16523;DHT22;19889;52.546;13.348;2023-07-16T02:21:03;25.80;99.00
16523;DHT22;19889;52.546;13.348;2023-07-16T02:23:31;25.70;98.90
16523;DHT22;19889;52.546;13.348;2023-07-16T02:25:58;25.70;99.00
16523;DHT22;19889;52.546;13.348;2023-07-16T02:28:25;25.80;99.20
16523;DHT22;19889;52.546;13.348;2023-07-16T02:30:53;25.80;99.50
16523;DHT22;19889;52.546;13.348;2023-07-16T02:33:21;25.70;99.70
16523;DHT22;19889;52.546;13.348;2023-07-16T02:35:49;25.70;99.90
16523;DHT22;19889;52.546;13.348;2023-07-16T02:38:17;25.70;99.90
16523;DHT22;19889;52.546;13.348;2023-07-16T02:40:45;25.60;99.90
16523;DHT22;19889;52.546;13.348;2023-07-16T02:43:12;25.60;99.90
16523;DHT22;19889;52.546;13.348;2023-07-16T02:45:40;25.60;99.90
16523;DHT22;19889;52.546;13.348;2023-07-16T02:48:07;25.60;99.90
16523;DHT22;19889;52.546;13.348;2023-07-16T02:50:36;25.60;99.90
16523;DHT22;19889;52.546;13.348;2023-07-16T02:53:04;25.50;99.90
16523;DHT22;19889;52.546;13.348;2023-07-16T02:55:32;25.50;99.90
16523;DHT22;19889;52.546;13.348;2023-07-16T02:58:18;25.50;99.90
16523;DHT22;19889;52.546;13.348;2023-07-16T03:00:45;25.50;99.90
16523;DHT22;19889;52.546;13.348;2023-07-16T03:03:12;25.40;99.90
16523;DHT22;19889;52.546;13.348;2023-07-16T03:05:40;25.40;99.90
16523;DHT22;19889;52.546;13.348;2023-07-16T03:08:07;24.90;99.90
16523;DHT22;19889;52.546;13.348;2023-07-16T03:10:35;25.40;99.90
16523;DHT22;19889;52.546;13.348;2023-07-16T03:13:03;25.40;99.90
16523;DHT22;19889;52.546;13.348;2023-07-16T03:15:30;25.40;99.90
16523;DHT22;19889;52.546;13.348;2023-07-16T03:17:57;25.40;99.90
16523;DHT22;19889;52.546;13.348;2023-07-16T03:20:44;25.40;99.90
16523;DHT22;19889;52.546;13.348;2023-07-16T03:23:11;25.40;99.90
16523;DHT22;19889;52.546;13.348;2023-07-16T03:25:39;25.40;99.90
16523;DHT22;19889;52.546;13.348;2023-07-16T03:28:06;25.40;99.90
16523;DHT22;19889;52.546;13.348;2023-07-16T03:30:33;25.30;99.90
16523;DHT22;19889;52.546;13.348;2023-07-16T03:33:00;25.30;99.90
16523;DHT22;19889;52.546;13.348;2023-07-16T03:35:27;25.30;99.90
16523;DHT22;19889;52.546;13.348;2023-07-16T03:37:56;25.30;99.90
16523;DHT22;19889;52.546;13.348;2023-07-16T03:40:26;25.30;99.90
16523;DHT22;19889;52.546;13.348;2023-07-16T03:42:54;25.20;99.90
16523;DHT22;19889;52.546;13.348;2023-07-16T03:45:23;25.20;99.90
16523;DHT22;19889;52.546;13.348;2023-07-16T03:47:51;25.20;99.90
16523;DHT22;19889;52.546;13.348;2023-07-16T03:50:18;25.10;99.90
16523;DHT22;19889;52.546;13.348;2023-07-16T03:52:45;25.10;99.90
16523;DHT22;19889;52.546;13.348;2023-07-16T03:55:14;25.20;99.90
16523;DHT22;19889;52.546;13.348;2023-07-16T03:57:42;25.10;99.90
16523;DHT22;19889;52.546;13.348;2023-07-16T04:00:10;25.10;99.90
16523;DHT22;19889;52.546;13.348;2023-07-16T04:02:40;25.10;99.90
16523;DHT22;19889;52.546;13.348;2023-07-16T04:05:12;25.10;99.90
16523;DHT22;19889;52.546;13.348;2023-07-16T04:07:40;25.10;99.90
16523;DHT22;19889;52.546;13.348;2023-07-16T04:10:08;25.10;99.90
16523;DHT22;19889;52.546;13.348;2023-07-16T04:12:37;25.10;99.90
16523;DHT22;19889;52.546;13.348;2023-07-16T04:15:08;25.10;99.90
16523;DHT22;19889;52.546;13.348;2023-07-16T04:17:37;25.10;99.90
16523;DHT22;19889;52.546;13.348;2023-07-16T04:20:06;25.10;99.90
16523;DHT22;19889;52.546;13.348;2023-07-16T04:22:34;25.10;99.90
16523;DHT22;19889;52.546;13.348;2023-07-16T04:25:02;25.10;99.90
16523;DHT22;19889;52.546;13.348;2023-07-16T04:27:31;25.00;99.90
16523;DHT22;19889;52.546;13.348;2023-07-16T04:30:00;25.00;99.90
16523;DHT22;19889;52.546;13.348;2023-07-16T04:32:27;25.00;99.90
16523;DHT22;19889;52.546;13.348;2023-07-16T04:34:54;25.00;99.90
16523;DHT22;19889;52.546;13.348;2023-07-16T04:37:22;25.00;99.90
16523;DHT22;19889;52.546;13.348;2023-07-16T04:39:49;25.00;99.90
16523;DHT22;19889;52.546;13.348;2023-07-16T04:42:17;25.00;99.90
16523;DHT22;19889;52.546;13.348;2023-07-16T04:44:46;25.00;99.90
16523;DHT22;19889;52.546;13.348;2023-07-16T04:47:15;25.00;99.90
16523;DHT22;19889;52.546;13.348;2023-07-16T04:49:43;25.00;99.90
16523;DHT22;19889;52.546;13.348;2023-07-16T04:52:10;24.90;99.90
16523;DHT22;19889;52.546;13.348;2023-07-16T04:54:38;24.90;99.90
16523;DHT22;19889;52.546;13.348;2023-07-16T04:57:07;24.90;99.90
16523;DHT22;19889;52.546;13.348;2023-07-16T04:59:34;24.90;99.90
16523;DHT22;19889;52.546;13.348;2023-07-16T05:02:04;24.90;99.90
16523;DHT22;19889;52.546;13.348;2023-07-16T05:04:33;24.90;99.90
16523;DHT22;19889;52.546;13.348;2023-07-16T05:07:01;24.90;99.90
16523;DHT22;19889;52.546;13.348;2023-07-16T05:09:29;24.80;99.90
16523;DHT22;19889;52.546;13.348;2023-07-16T05:11:57;24.80;99.90
16523;DHT22;19889;52.546;13.348;2023-07-16T05:14:27;24.80;99.90
16523;DHT22;19889;52.546;13.348;2023-07-16T05:19:20;24.80;99.90
16523;DHT22;19889;52.546;13.348;2023-07-16T05:21:50;24.80;99.90
16523;DHT22;19889;52.546;13.348;2023-07-16T05:24:17;24.80;99.90
16523;DHT22;19889;52.546;13.348;2023-07-16T05:26:44;24.80;99.90
16523;DHT22;19889;52.546;13.348;2023-07-16T05:29:12;24.80;99.90
16523;DHT22;19889;52.546;13.348;2023-07-16T05:31:41;24.80;99.90
16523;DHT22;19889;52.546;13.348;2023-07-16T05:34:09;24.80;99.90
16523;DHT22;19889;52.546;13.348;2023-07-16T05:36:37;24.90;99.90
16523;DHT22;19889;52.546;13.348;2023-07-16T05:39:05;24.80;99.90
16523;DHT22;19889;52.546;13.348;2023-07-16T05:41:34;24.90;99.90
16523;DHT22;19889;52.546;13.348;2023-07-16T05:44:02;24.90;99.90
16523;DHT22;19889;52.546;13.348;2023-07-16T05:46:29;24.90;99.90
16523;DHT22;19889;52.546;13.348;2023-07-16T05:48:57;24.90;99.90
16523;DHT22;19889;52.546;13.348;2023-07-16T05:51:24;24.90;99.90
16523;DHT22;19889;52.546;13.348;2023-07-16T05:53:52;24.90;99.90
16523;DHT22;19889;52.546;13.348;2023-07-16T05:56:21;24.90;99.90
16523;DHT22;19889;52.546;13.348;2023-07-16T05:58:48;24.90;99.90
16523;DHT22;19889;52.546;13.348;2023-07-16T06:01:15;24.90;99.90
16523;DHT22;19889;52.546;13.348;2023-07-16T06:03:43;24.80;99.90
16523;DHT22;19889;52.546;13.348;2023-07-16T06:06:11;24.80;99.90
16523;DHT22;19889;52.546;13.348;2023-07-16T06:08:38;24.80;99.90
16523;DHT22;19889;52.546;13.348;2023-07-16T06:11:06;24.80;99.90
16523;DHT22;19889;52.546;13.348;2023-07-16T06:13:35;24.80;99.90
16523;DHT22;19889;52.546;13.348;2023-07-16T06:16:03;24.80;99.90
16523;DHT22;19889;52.546;13.348;2023-07-16T06:18:30;24.80;99.90
16523;DHT22;19889;52.546;13.348;2023-07-16T06:20:58;24.80;99.90
16523;DHT22;19889;52.546;13.348;2023-07-16T06:23:25;24.80;99.90
16523;DHT22;19889;52.546;13.348;2023-07-16T06:25:56;24.80;99.90
16523;DHT22;19889;52.546;13.348;2023-07-16T06:28:24;24.80;99.90
16523;DHT22;19889;52.546;13.348;2023-07-16T06:30:53;24.80;99.90
16523;DHT22;19889;52.546;13.348;2023-07-16T06:33:20;24.90;99.90
16523;DHT22;19889;52.546;13.348;2023-07-16T06:35:48;24.90;99.90
16523;DHT22;19889;52.546;13.348;2023-07-16T06:38:15;24.90;99.90
16523;DHT22;19889;52.546;13.348;2023-07-16T06:40:46;24.90;99.90
16523;DHT22;19889;52.546;13.348;2023-07-16T06:43:15;24.90;99.90
16523;DHT22;19889;52.546;13.348;2023-07-16T06:45:42;25.00;99.90
16523;DHT22;19889;52.546;13.348;2023-07-16T06:48:11;25.00;99.90
16523;DHT22;19889;52.546;13.348;2023-07-16T06:50:39;24.90;99.90
16523;DHT22;19889;52.546;13.348;2023-07-16T06:53:07;25.00;99.90
16523;DHT22;19889;52.546;13.348;2023-07-16T06:55:34;25.00;99.90
16523;DHT22;19889;52.546;13.348;2023-07-16T06:58:02;25.10;99.90
16523;DHT22;19889;52.546;13.348;2023-07-16T07:00:29;25.10;99.90
16523;DHT22;19889;52.546;13.348;2023-07-16T07:02:57;25.10;99.90
16523;DHT22;19889;52.546;13.348;2023-07-16T07:05:26;25.10;99.90
16523;DHT22;19889;52.546;13.348;2023-07-16T07:07:53;25.10;99.90
16523;DHT22;19889;52.546;13.348;2023-07-16T07:10:21;25.10;99.90
16523;DHT22;19889;52.546;13.348;2023-07-16T07:12:49;25.20;99.90
16523;DHT22;19889;52.546;13.348;2023-07-16T07:15:16;25.20;99.90
16523;DHT22;19889;52.546;13.348;2023-07-16T07:17:44;25.20;99.90
16523;DHT22;19889;52.546;13.348;2023-07-16T07:20:13;25.20;99.90
16523;DHT22;19889;52.546;13.348;2023-07-16T07:22:42;25.20;99.90
16523;DHT22;19889;52.546;13.348;2023-07-16T07:25:10;25.30;99.90
16523;DHT22;19889;52.546;13.348;2023-07-16T07:27:38;25.30;99.90
16523;DHT22;19889;52.546;13.348;2023-07-16T07:30:06;25.30;99.90
16523;DHT22;19889;52.546;13.348;2023-07-16T07:32:37;25.30;99.90
16523;DHT22;19889;52.546;13.348;2023-07-16T07:35:05;25.30;99.90
16523;DHT22;19889;52.546;13.348;2023-07-16T07:37:33;25.40;99.90
16523;DHT22;19889;52.546;13.348;2023-07-16T07:40:02;25.40;99.90
16523;DHT22;19889;52.546;13.348;2023-07-16T07:42:30;25.40;99.90
16523;DHT22;19889;52.546;13.348;2023-07-16T07:44:57;25.40;99.90
16523;DHT22;19889;52.546;13.348;2023-07-16T07:47:30;25.40;99.90
16523;DHT22;19889;52.546;13.348;2023-07-16T07:50:00;25.40;99.90
16523;DHT22;19889;52.546;13.348;2023-07-16T07:52:27;25.40;99.90
16523;DHT22;19889;52.546;13.348;2023-07-16T07:54:55;25.40;99.90
16523;DHT22;19889;52.546;13.348;2023-07-16T07:57:24;25.40;99.90
16523;DHT22;19889;52.546;13.348;2023-07-16T07:59:51;25.40;99.90
16523;DHT22;19889;52.546;13.348;2023-07-16T08:02:23;25.40;99.90
16523;DHT22;19889;52.546;13.348;2023-07-16T08:05:13;25.40;99.90
16523;DHT22;19889;52.546;13.348;2023-07-16T08:07:55;25.40;99.90
16523;DHT22;19889;52.546;13.348;2023-07-16T08:10:29;25.40;99.90
16523;DHT22;19889;52.546;13.348;2023-07-16T08:12:58;24.40;99.90
16523;DHT22;19889;52.546;13.348;2023-07-16T08:15:25;25.40;99.90
16523;DHT22;19889;52.546;13.348;2023-07-16T08:17:53;25.40;99.90
16523;DHT22;19889;52.546;13.348;2023-07-16T08:20:28;25.30;99.90
16523;DHT22;19889;52.546;13.348;2023-07-16T08:22:55;25.30;99.90
16523;DHT22;19889;52.546;13.348;2023-07-16T08:25:23;25.30;99.90
16523;DHT22;19889;52.546;13.348;2023-07-16T08:27:52;25.40;99.90
16523;DHT22;19889;52.546;13.348;2023-07-16T08:30:22;25.40;99.90
16523;DHT22;19889;52.546;13.348;2023-07-16T08:32:49;25.40;99.90
16523;DHT22;19889;52.546;13.348;2023-07-16T08:35:17;25.40;99.90
16523;DHT22;19889;52.546;13.348;2023-07-16T08:37:46;25.50;99.90
16523;DHT22;19889;52.546;13.348;2023-07-16T08:40:14;25.40;99.90
16523;DHT22;19889;52.546;13.348;2023-07-16T08:42:44;25.40;99.90
16523;DHT22;19889;52.546;13.348;2023-07-16T08:45:12;25.50;99.90
16523;DHT22;19889;52.546;13.348;2023-07-16T08:47:43;25.40;99.90
16523;DHT22;19889;52.546;13.348;2023-07-16T08:50:12;25.50;99.90
16523;DHT22;19889;52.546;13.348;2023-07-16T08:52:40;25.50;99.90
16523;DHT22;19889;52.546;13.348;2023-07-16T08:55:08;25.50;99.90
16523;DHT22;19889;52.546;13.348;2023-07-16T08:57:36;25.50;99.90
16523;DHT22;19889;52.546;13.348;2023-07-16T09:00:06;25.50;99.90
16523;DHT22;19889;52.546;13.348;2023-07-16T09:02:35;25.50;99.90
16523;DHT22;19889;52.546;13.348;2023-07-16T09:05:05;25.50;99.90
16523;DHT22;19889;52.546;13.348;2023-07-16T09:07:35;25.50;99.70
16523;DHT22;19889;52.546;13.348;2023-07-16T09:10:03;25.50;99.60
16523;DHT22;19889;52.546;13.348;2023-07-16T09:12:31;25.50;99.50
16523;DHT22;19889;52.546;13.348;2023-07-16T09:14:59;25.60;99.40
16523;DHT22;19889;52.546;13.348;2023-07-16T09:17:26;25.60;99.20
16523;DHT22;19889;52.546;13.348;2023-07-16T09:19:54;25.60;99.10
16523;DHT22;19889;52.546;13.348;2023-07-16T09:22:23;25.60;99.00
16523;DHT22;19889;52.546;13.348;2023-07-16T09:24:50;25.70;99.10
16523;DHT22;19889;52.546;13.348;2023-07-16T09:27:17;25.80;98.80
16523;DHT22;19889;52.546;13.348;2023-07-16T09:29:44;26.00;98.60
16523;DHT22;19889;52.546;13.348;2023-07-16T09:32:11;26.10;97.80
16523;DHT22;19889;52.546;13.348;2023-07-16T09:34:40;26.20;97.40
16523;DHT22;19889;52.546;13.348;2023-07-16T09:37:07;26.20;97.10
16523;DHT22;19889;52.546;13.348;2023-07-16T09:39:37;26.10;96.80
16523;DHT22;19889;52.546;13.348;2023-07-16T09:42:06;26.20;96.80
16523;DHT22;19889;52.546;13.348;2023-07-16T09:44:34;26.20;96.40
16523;DHT22;19889;52.546;13.348;2023-07-16T09:47:01;26.10;96.10
16523;DHT22;19889;52.546;13.348;2023-07-16T09:49:29;26.10;96.00
16523;DHT22;19889;52.546;13.348;2023-07-16T09:51:57;26.10;96.00
16523;DHT22;19889;52.546;13.348;2023-07-16T09:54:25;26.10;96.10
16523;DHT22;19889;52.546;13.348;2023-07-16T09:56:57;26.10;96.00
16523;DHT22;19889;52.546;13.348;2023-07-16T09:59:28;26.10;95.80
16523;DHT22;19889;52.546;13.348;2023-07-16T10:01:56;26.10;95.80
16523;DHT22;19889;52.546;13.348;2023-07-16T10:04:24;26.20;95.90
16523;DHT22;19889;52.546;13.348;2023-07-16T10:06:53;26.20;95.70
16523;DHT22;19889;52.546;13.348;2023-07-16T10:09:38;26.20;95.50
16523;DHT22;19889;52.546;13.348;2023-07-16T10:12:14;26.20;95.40
16523;DHT22;19889;52.546;13.348;2023-07-16T10:14:56;26.20;95.40
16523;DHT22;19889;52.546;13.348;2023-07-16T10:17:25;26.10;95.20
16523;DHT22;19889;52.546;13.348;2023-07-16T10:19:56;26.20;95.30
16523;DHT22;19889;52.546;13.348;2023-07-16T10:22:34;26.20;95.20
16523;DHT22;19889;52.546;13.348;2023-07-16T10:25:03;26.20;95.10
16523;DHT22;19889;52.546;13.348;2023-07-16T10:27:33;26.20;95.20
16523;DHT22;19889;52.546;13.348;2023-07-16T10:30:02;26.20;95.20
16523;DHT22;19889;52.546;13.348;2023-07-16T10:32:31;26.20;95.20
16523;DHT22;19889;52.546;13.348;2023-07-16T10:34:59;26.30;95.20
16523;DHT22;19889;52.546;13.348;2023-07-16T10:37:26;26.30;95.20
16523;DHT22;19889;52.546;13.348;2023-07-16T10:39:55;26.30;95.10
16523;DHT22;19889;52.546;13.348;2023-07-16T10:42:23;26.40;95.10
16523;DHT22;19889;52.546;13.348;2023-07-16T10:45:00;26.40;95.00
16523;DHT22;19889;52.546;13.348;2023-07-16T10:47:31;26.40;94.80
16523;DHT22;19889;52.546;13.348;2023-07-16T10:49:59;26.40;94.60
16523;DHT22;19889;52.546;13.348;2023-07-16T10:52:26;26.50;94.60
16523;DHT22;19889;52.546;13.348;2023-07-16T10:54:54;26.50;94.50
16523;DHT22;19889;52.546;13.348;2023-07-16T10:57:24;26.50;94.50
16523;DHT22;19889;52.546;13.348;2023-07-16T10:59:52;26.50;94.50
16523;DHT22;19889;52.546;13.348;2023-07-16T11:02:22;26.40;94.40
16523;DHT22;19889;52.546;13.348;2023-07-16T11:04:50;26.50;94.30
16523;DHT22;19889;52.546;13.348;2023-07-16T11:07:19;26.50;94.40
16523;DHT22;19889;52.546;13.348;2023-07-16T11:09:48;26.50;94.30
16523;DHT22;19889;52.546;13.348;2023-07-16T11:12:16;26.50;94.10
16523;DHT22;19889;52.546;13.348;2023-07-16T11:14:46;26.50;94.00
16523;DHT22;19889;52.546;13.348;2023-07-16T11:17:15;26.50;94.00
16523;DHT22;19889;52.546;13.348;2023-07-16T11:19:45;26.50;94.00
16523;DHT22;19889;52.546;13.348;2023-07-16T11:22:14;26.50;93.90
16523;DHT22;19889;52.546;13.348;2023-07-16T11:24:43;26.40;93.70
16523;DHT22;19889;52.546;13.348;2023-07-16T11:27:13;26.40;93.70
16523;DHT22;19889;52.546;13.348;2023-07-16T11:29:45;26.40;93.70
16523;DHT22;19889;52.546;13.348;2023-07-16T11:32:13;26.40;93.80
16523;DHT22;19889;52.546;13.348;2023-07-16T11:34:53;26.40;93.70
16523;DHT22;19889;52.546;13.348;2023-07-16T11:37:21;26.40;93.70
16523;DHT22;19889;52.546;13.348;2023-07-16T11:39:48;26.40;93.80
16523;DHT22;19889;52.546;13.348;2023-07-16T11:42:22;26.50;93.60
16523;DHT22;19889;52.546;13.348;2023-07-16T11:44:50;26.50;93.40
16523;DHT22;19889;52.546;13.348;2023-07-16T11:47:17;26.50;93.70
16523;DHT22;19889;52.546;13.348;2023-07-16T11:49:45;26.50;93.30
16523;DHT22;19889;52.546;13.348;2023-07-16T11:52:13;26.60;93.10
16523;DHT22;19889;52.546;13.348;2023-07-16T11:54:40;26.60;92.90
16523;DHT22;19889;52.546;13.348;2023-07-16T11:57:07;26.70;92.90
16523;DHT22;19889;52.546;13.348;2023-07-16T11:59:35;26.70;92.80
16523;DHT22;19889;52.546;13.348;2023-07-16T12:02:02;26.70;92.70
16523;DHT22;19889;52.546;13.348;2023-07-16T12:04:30;26.70;92.20
16523;DHT22;19889;52.546;13.348;2023-07-16T12:06:57;26.70;92.10
16523;DHT22;19889;52.546;13.348;2023-07-16T12:09:25;26.60;91.60
16523;DHT22;19889;52.546;13.348;2023-07-16T12:11:52;26.60;91.30
16523;DHT22;19889;52.546;13.348;2023-07-16T12:14:19;26.60;91.20
16523;DHT22;19889;52.546;13.348;2023-07-16T12:16:46;26.70;91.20
16523;DHT22;19889;52.546;13.348;2023-07-16T12:19:14;26.70;91.00
16523;DHT22;19889;52.546;13.348;2023-07-16T12:21:41;26.70;90.60
16523;DHT22;19889;52.546;13.348;2023-07-16T12:24:08;26.70;90.00
16523;DHT22;19889;52.546;13.348;2023-07-16T12:26:37;26.70;89.80
16523;DHT22;19889;52.546;13.348;2023-07-16T12:29:04;26.60;89.40
16523;DHT22;19889;52.546;13.348;2023-07-16T12:31:31;26.70;89.30
16523;DHT22;19889;52.546;13.348;2023-07-16T12:33:59;26.70;88.30
16523;DHT22;19889;52.546;13.348;2023-07-16T12:36:27;26.70;86.60
16523;DHT22;19889;52.546;13.348;2023-07-16T12:38:55;26.80;86.20
16523;DHT22;19889;52.546;13.348;2023-07-16T12:41:22;26.90;84.00
16523;DHT22;19889;52.546;13.348;2023-07-16T12:43:51;26.90;83.30
16523;DHT22;19889;52.546;13.348;2023-07-16T12:46:18;26.90;83.00
16523;DHT22;19889;52.546;13.348;2023-07-16T12:48:45;26.90;82.50
16523;DHT22;19889;52.546;13.348;2023-07-16T12:51:12;26.90;81.70
16523;DHT22;19889;52.546;13.348;2023-07-16T12:53:39;27.00;80.50
16523;DHT22;19889;52.546;13.348;2023-07-16T12:56:07;27.00;80.90
16523;DHT22;19889;52.546;13.348;2023-07-16T12:58:34;27.10;81.30
16523;DHT22;19889;52.546;13.348;2023-07-16T13:01:03;27.10;80.90
16523;DHT22;19889;52.546;13.348;2023-07-16T13:03:31;27.10;79.90
16523;DHT22;19889;52.546;13.348;2023-07-16T13:05:59;27.10;80.30
16523;DHT22;19889;52.546;13.348;2023-07-16T13:08:26;27.10;80.60
16523;DHT22;19889;52.546;13.348;2023-07-16T13:10:54;27.10;80.60
16523;DHT22;19889;52.546;13.348;2023-07-16T13:13:21;27.10;80.90
16523;DHT22;19889;52.546;13.348;2023-07-16T13:15:49;27.10;80.90
16523;DHT22;19889;52.546;13.348;2023-07-16T13:18:18;27.00;80.80
16523;DHT22;19889;52.546;13.348;2023-07-16T13:20:45;27.10;81.00
16523;DHT22;19889;52.546;13.348;2023-07-16T13:23:13;27.10;81.40
16523;DHT22;19889;52.546;13.348;2023-07-16T13:25:41;27.10;81.10
16523;DHT22;19889;52.546;13.348;2023-07-16T13:28:08;27.20;80.80
16523;DHT22;19889;52.546;13.348;2023-07-16T13:30:36;27.20;80.60
16523;DHT22;19889;52.546;13.348;2023-07-16T13:33:04;27.20;80.40
16523;DHT22;19889;52.546;13.348;2023-07-16T13:35:32;27.20;80.40
16523;DHT22;19889;52.546;13.348;2023-07-16T13:38:00;27.20;80.60
16523;DHT22;19889;52.546;13.348;2023-07-16T13:40:28;27.20;80.90
16523;DHT22;19889;52.546;13.348;2023-07-16T13:42:55;27.20;81.20
16523;DHT22;19889;52.546;13.348;2023-07-16T13:45:23;27.20;81.40
16523;DHT22;19889;52.546;13.348;2023-07-16T13:47:51;27.20;81.00
16523;DHT22;19889;52.546;13.348;2023-07-16T13:50:20;27.30;80.80
16523;DHT22;19889;52.546;13.348;2023-07-16T13:52:49;27.30;79.10
16523;DHT22;19889;52.546;13.348;2023-07-16T13:55:17;27.30;78.80
16523;DHT22;19889;52.546;13.348;2023-07-16T13:57:44;27.40;78.50
16523;DHT22;19889;52.546;13.348;2023-07-16T14:00:13;27.50;78.70
16523;DHT22;19889;52.546;13.348;2023-07-16T14:02:43;27.40;78.70
16523;DHT22;19889;52.546;13.348;2023-07-16T14:05:11;27.40;78.80
16523;DHT22;19889;52.546;13.348;2023-07-16T14:07:39;27.40;78.50
16523;DHT22;19889;52.546;13.348;2023-07-16T14:10:09;27.40;78.50
16523;DHT22;19889;52.546;13.348;2023-07-16T14:12:36;27.40;78.00
16523;DHT22;19889;52.546;13.348;2023-07-16T14:15:05;27.30;77.40
16523;DHT22;19889;52.546;13.348;2023-07-16T14:17:33;27.30;77.00
16523;DHT22;19889;52.546;13.348;2023-07-16T14:20:01;27.30;76.30
16523;DHT22;19889;52.546;13.348;2023-07-16T14:22:29;27.40;75.90
16523;DHT22;19889;52.546;13.348;2023-07-16T14:24:57;27.40;75.80
16523;DHT22;19889;52.546;13.348;2023-07-16T14:27:26;27.50;75.90
16523;DHT22;19889;52.546;13.348;2023-07-16T14:29:53;27.40;75.80
16523;DHT22;19889;52.546;13.348;2023-07-16T14:32:21;27.40;76.00
16523;DHT22;19889;52.546;13.348;2023-07-16T14:34:48;27.40;76.20
16523;DHT22;19889;52.546;13.348;2023-07-16T14:37:16;27.50;76.60
16523;DHT22;19889;52.546;13.348;2023-07-16T14:39:43;27.50;76.50
16523;DHT22;19889;52.546;13.348;2023-07-16T14:42:11;27.40;76.00
16523;DHT22;19889;52.546;13.348;2023-07-16T14:44:40;27.40;75.90
16523;DHT22;19889;52.546;13.348;2023-07-16T14:47:07;27.40;76.00
16523;DHT22;19889;52.546;13.348;2023-07-16T14:49:35;27.40;75.50
16523;DHT22;19889;52.546;13.348;2023-07-16T14:52:04;27.40;75.40
16523;DHT22;19889;52.546;13.348;2023-07-16T14:54:32;27.40;75.20
16523;DHT22;19889;52.546;13.348;2023-07-16T14:57:02;27.40;75.00
16523;DHT22;19889;52.546;13.348;2023-07-16T14:59:30;27.40;75.10
16523;DHT22;19889;52.546;13.348;2023-07-16T15:01:59;27.30;75.30
16523;DHT22;19889;52.546;13.348;2023-07-16T15:04:27;27.40;75.40
16523;DHT22;19889;52.546;13.348;2023-07-16T15:06:54;27.40;74.80
16523;DHT22;19889;52.546;13.348;2023-07-16T15:09:22;27.30;74.60
16523;DHT22;19889;52.546;13.348;2023-07-16T15:11:49;27.30;74.90
16523;DHT22;19889;52.546;13.348;2023-07-16T15:14:17;27.30;74.50
16523;DHT22;19889;52.546;13.348;2023-07-16T15:16:44;27.30;74.10
16523;DHT22;19889;52.546;13.348;2023-07-16T15:19:13;27.30;74.00
16523;DHT22;19889;52.546;13.348;2023-07-16T15:21:43;27.40;73.90
16523;DHT22;19889;52.546;13.348;2023-07-16T15:24:10;27.40;74.10
16523;DHT22;19889;52.546;13.348;2023-07-16T15:26:38;27.40;74.10